sensor_id;sensor_type;location;lat;lon;timestamp;P1;durP1;ratioP1;P2;durP2;ratioP2
19887;SDS011;10106;51.332;12.336;2023-03-20T00:02:06;4.00;;;2.30;;
19887;SDS011;10106;51.332;12.336;2023-03-20T00:04:35;2.67;;;2.40;;
19887;SDS011;10106;51.332;12.336;2023-03-20T00:07:00;4.00;;;2.40;;
19887;SDS011;10106;51.332;12.336;2023-03-20T00:09:27;2.60;;;2.40;;
19887;SDS011;10106;51.332;12.336;2023-03-20T00:11:53;3.67;;;3.03;;
19887;SDS011;10106;51.332;12.336;2023-03-20T00:14:20;3.40;;;2.97;;
19887;SDS011;10106;51.332;12.336;2023-03-20T00:16:48;2.83;;;2.23;;
19887;SDS011;10106;51.332;12.336;2023-03-20T00:19:15;2.30;;;2.10;;
19887;SDS011;10106;51.332;12.336;2023-03-20T00:21:43;4.13;;;2.80;;
19887;SDS011;10106;51.332;12.336;2023-03-20T00:24:10;2.90;;;2.30;;
19887;SDS011;10106;51.332;12.336;2023-03-20T00:26:36;6.40;;;2.20;;
19887;SDS011;10106;51.332;12.336;2023-03-20T00:29:03;4.20;;;2.63;;
19887;SDS011;10106;51.332;12.336;2023-03-20T00:31:35;5.27;;;2.60;;
19887;SDS011;10106;51.332;12.336;2023-03-20T00:34:04;3.60;;;2.60;;
19887;SDS011;10106;51.332;12.336;2023-03-20T00:36:34;5.90;;;2.80;;
19887;SDS011;10106;51.332;12.336;2023-03-20T00:38:59;3.87;;;2.73;;
19887;SDS011;10106;51.332;12.336;2023-03-20T00:46:47;2.90;;;2.70;;
19887;SDS011;10106;51.332;12.336;2023-03-20T00:49:16;3.00;;;2.70;;
19887;SDS011;10106;51.332;12.336;2023-03-20T00:51:43;3.10;;;2.83;;
19887;SDS011;10106;51.332;12.336;2023-03-20T00:54:12;3.93;;;2.93;;
19887;SDS011;10106;51.332;12.336;2023-03-20T00:59:42;2.97;;;2.67;;
19887;SDS011;10106;51.332;12.336;2023-03-20T01:02:32;4.90;;;3.90;;
19887;SDS011;10106;51.332;12.336;2023-03-20T01:04:59;4.90;;;2.93;;
19887;SDS011;10106;51.332;12.336;2023-03-20T01:07:25;3.30;;;2.93;;
19887;SDS011;10106;51.332;12.336;2023-03-20T01:09:51;3.73;;;2.73;;
19887;SDS011;10106;51.332;12.336;2023-03-20T01:12:17;4.30;;;3.03;;
19887;SDS011;10106;51.332;12.336;2023-03-20T01:14:43;9.13;;;4.17;;
19887;SDS011;10106;51.332;12.336;2023-03-20T01:17:17;5.83;;;3.43;;
19887;SDS011;10106;51.332;12.336;2023-03-20T01:19:45;4.93;;;3.43;;
19887;SDS011;10106;51.332;12.336;2023-03-20T01:22:11;3.50;;;3.17;;
19887;SDS011;10106;51.332;12.336;2023-03-20T01:24:38;2.97;;;2.77;;
19887;SDS011;10106;51.332;12.336;2023-03-20T01:27:04;3.43;;;3.13;;
19887;SDS011;10106;51.332;12.336;2023-03-20T01:29:37;3.50;;;3.20;;
19887;SDS011;10106;51.332;12.336;2023-03-20T01:32:04;4.50;;;3.30;;
19887;SDS011;10106;51.332;12.336;2023-03-20T01:34:36;3.80;;;2.77;;
19887;SDS011;10106;51.332;12.336;2023-03-20T01:37:02;5.93;;;3.20;;
19887;SDS011;10106;51.332;12.336;2023-03-20T01:39:30;6.50;;;3.13;;
19887;SDS011;10106;51.332;12.336;2023-03-20T01:41:58;4.90;;;3.27;;
19887;SDS011;10106;51.332;12.336;2023-03-20T01:44:25;5.00;;;3.20;;
19887;SDS011;10106;51.332;12.336;2023-03-20T01:46:56;5.40;;;3.50;;
19887;SDS011;10106;51.332;12.336;2023-03-20T01:51:48;3.83;;;3.10;;
19887;SDS011;10106;51.332;12.336;2023-03-20T01:56:59;4.93;;;3.37;;
19887;SDS011;10106;51.332;12.336;2023-03-20T01:59:43;6.53;;;3.30;;
19887;SDS011;10106;51.332;12.336;2023-03-20T02:02:14;4.33;;;3.20;;
19887;SDS011;10106;51.332;12.336;2023-03-20T02:04:44;5.80;;;3.88;;
19887;SDS011;10106;51.332;12.336;2023-03-20T02:07:12;5.05;;;4.10;;
19887;SDS011;10106;51.332;12.336;2023-03-20T02:09:42;5.32;;;3.95;;
19887;SDS011;10106;51.332;12.336;2023-03-20T02:12:07;8.73;;;4.80;;
19887;SDS011;10106;51.332;12.336;2023-03-20T02:14:34;4.00;;;3.60;;
19887;SDS011;10106;51.332;12.336;2023-03-20T02:17:02;4.43;;;4.00;;
19887;SDS011;10106;51.332;12.336;2023-03-20T02:19:34;5.87;;;4.00;;
19887;SDS011;10106;51.332;12.336;2023-03-20T02:22:24;5.10;;;3.63;;
19887;SDS011;10106;51.332;12.336;2023-03-20T02:52:24;5.57;;;3.50;;
19887;SDS011;10106;51.332;12.336;2023-03-20T02:58:11;5.17;;;3.50;;
19887;SDS011;10106;51.332;12.336;2023-03-20T03:01:01;4.53;;;4.10;;
19887;SDS011;10106;51.332;12.336;2023-03-20T03:03:41;4.53;;;3.50;;
19887;SDS011;10106;51.332;12.336;2023-03-20T03:08:41;4.47;;;3.73;;
19887;SDS011;10106;51.332;12.336;2023-03-20T03:11:11;6.67;;;4.10;;
19887;SDS011;10106;51.332;12.336;2023-03-20T03:13:39;5.97;;;3.73;;
19887;SDS011;10106;51.332;12.336;2023-03-20T03:16:10;4.20;;;3.60;;
19887;SDS011;10106;51.332;12.336;2023-03-20T03:18:39;3.90;;;3.50;;
19887;SDS011;10106;51.332;12.336;2023-03-20T03:21:07;3.67;;;3.30;;
19887;SDS011;10106;51.332;12.336;2023-03-20T03:23:45;4.67;;;3.53;;
19887;SDS011;10106;51.332;12.336;2023-03-20T03:26:25;5.30;;;3.80;;
19887;SDS011;10106;51.332;12.336;2023-03-20T03:28:59;5.17;;;3.50;;
19887;SDS011;10106;51.332;12.336;2023-03-20T03:31:30;3.73;;;3.43;;
19887;SDS011;10106;51.332;12.336;2023-03-20T03:33:57;5.47;;;3.40;;
19887;SDS011;10106;51.332;12.336;2023-03-20T03:39:51;4.43;;;3.63;;
19887;SDS011;10106;51.332;12.336;2023-03-20T03:42:07;4.17;;;3.77;;
19887;SDS011;10106;51.332;12.336;2023-03-20T03:47:30;4.37;;;3.70;;
19887;SDS011;10106;51.332;12.336;2023-03-20T03:50:00;4.27;;;3.57;;
19887;SDS011;10106;51.332;12.336;2023-03-20T03:52:31;4.57;;;3.60;;
19887;SDS011;10106;51.332;12.336;2023-03-20T03:54:59;6.03;;;4.00;;
19887;SDS011;10106;51.332;12.336;2023-03-20T03:57:35;6.77;;;4.03;;
19887;SDS011;10106;51.332;12.336;2023-03-20T04:00:06;5.47;;;3.47;;
19887;SDS011;10106;51.332;12.336;2023-03-20T04:02:35;7.57;;;3.90;;
19887;SDS011;10106;51.332;12.336;2023-03-20T04:05:02;4.17;;;3.43;;
19887;SDS011;10106;51.332;12.336;2023-03-20T04:07:29;8.70;;;4.10;;
19887;SDS011;10106;51.332;12.336;2023-03-20T04:09:55;5.17;;;3.90;;
19887;SDS011;10106;51.332;12.336;2023-03-20T04:12:37;7.17;;;4.17;;
19887;SDS011;10106;51.332;12.336;2023-03-20T04:15:04;5.20;;;4.67;;
19887;SDS011;10106;51.332;12.336;2023-03-20T04:17:31;5.10;;;3.90;;
19887;SDS011;10106;51.332;12.336;2023-03-20T04:19:58;7.60;;;4.90;;
19887;SDS011;10106;51.332;12.336;2023-03-20T04:22:24;5.53;;;4.20;;
19887;SDS011;10106;51.332;12.336;2023-03-20T04:24:50;6.07;;;4.80;;
19887;SDS011;10106;51.332;12.336;2023-03-20T04:27:16;7.53;;;4.80;;
19887;SDS011;10106;51.332;12.336;2023-03-20T04:29:42;7.40;;;4.57;;
19887;SDS011;10106;51.332;12.336;2023-03-20T04:32:08;11.17;;;5.00;;
19887;SDS011;10106;51.332;12.336;2023-03-20T04:34:34;9.20;;;5.00;;
19887;SDS011;10106;51.332;12.336;2023-03-20T04:37:00;8.30;;;5.77;;
19887;SDS011;10106;51.332;12.336;2023-03-20T04:39:26;16.37;;;5.77;;
19887;SDS011;10106;51.332;12.336;2023-03-20T04:41:52;11.77;;;5.90;;
19887;SDS011;10106;51.332;12.336;2023-03-20T04:44:17;8.70;;;5.53;;
19887;SDS011;10106;51.332;12.336;2023-03-20T04:46:43;9.63;;;5.70;;
19887;SDS011;10106;51.332;12.336;2023-03-20T04:49:09;11.47;;;5.90;;
19887;SDS011;10106;51.332;12.336;2023-03-20T04:51:35;13.87;;;5.80;;
19887;SDS011;10106;51.332;12.336;2023-03-20T04:54:00;7.97;;;5.20;;
19887;SDS011;10106;51.332;12.336;2023-03-20T04:56:26;9.67;;;5.33;;
19887;SDS011;10106;51.332;12.336;2023-03-20T04:58:52;9.60;;;5.70;;
19887;SDS011;10106;51.332;12.336;2023-03-20T05:01:17;11.00;;;5.90;;
19887;SDS011;10106;51.332;12.336;2023-03-20T05:03:43;9.30;;;4.77;;
19887;SDS011;10106;51.332;12.336;2023-03-20T05:06:09;10.30;;;6.30;;
19887;SDS011;10106;51.332;12.336;2023-03-20T05:08:34;9.50;;;5.50;;
19887;SDS011;10106;51.332;12.336;2023-03-20T05:11:00;8.00;;;5.70;;
19887;SDS011;10106;51.332;12.336;2023-03-20T05:13:26;7.37;;;5.10;;
19887;SDS011;10106;51.332;12.336;2023-03-20T05:15:54;10.77;;;5.37;;
19887;SDS011;10106;51.332;12.336;2023-03-20T05:18:20;5.23;;;4.73;;
19887;SDS011;10106;51.332;12.336;2023-03-20T05:20:48;7.27;;;5.37;;
19887;SDS011;10106;51.332;12.336;2023-03-20T05:23:14;6.97;;;5.20;;
19887;SDS011;10106;51.332;12.336;2023-03-20T05:25:40;6.30;;;4.50;;
19887;SDS011;10106;51.332;12.336;2023-03-20T05:28:06;7.53;;;4.67;;
19887;SDS011;10106;51.332;12.336;2023-03-20T05:30:31;9.27;;;5.30;;
19887;SDS011;10106;51.332;12.336;2023-03-20T05:32:57;6.43;;;4.63;;
19887;SDS011;10106;51.332;12.336;2023-03-20T05:35:23;10.60;;;5.47;;
19887;SDS011;10106;51.332;12.336;2023-03-20T05:37:49;9.37;;;5.77;;
19887;SDS011;10106;51.332;12.336;2023-03-20T05:40:15;7.27;;;5.80;;
19887;SDS011;10106;51.332;12.336;2023-03-20T05:42:43;9.50;;;4.73;;
19887;SDS011;10106;51.332;12.336;2023-03-20T05:45:09;6.63;;;4.37;;
19887;SDS011;10106;51.332;12.336;2023-03-20T05:47:35;8.97;;;4.33;;
19887;SDS011;10106;51.332;12.336;2023-03-20T05:50:02;6.67;;;5.20;;
19887;SDS011;10106;51.332;12.336;2023-03-20T05:52:28;7.70;;;4.87;;
19887;SDS011;10106;51.332;12.336;2023-03-20T05:54:54;7.50;;;5.20;;
19887;SDS011;10106;51.332;12.336;2023-03-20T05:57:19;7.90;;;5.30;;
19887;SDS011;10106;51.332;12.336;2023-03-20T05:59:45;9.67;;;5.30;;
19887;SDS011;10106;51.332;12.336;2023-03-20T06:07:22;7.23;;;4.63;;
19887;SDS011;10106;51.332;12.336;2023-03-20T06:09:48;10.50;;;3.87;;
19887;SDS011;10106;51.332;12.336;2023-03-20T06:12:14;6.60;;;4.60;;
19887;SDS011;10106;51.332;12.336;2023-03-20T06:14:40;5.27;;;4.17;;
19887;SDS011;10106;51.332;12.336;2023-03-20T06:17:06;7.30;;;4.40;;
19887;SDS011;10106;51.332;12.336;2023-03-20T06:19:31;5.17;;;3.93;;
19887;SDS011;10106;51.332;12.336;2023-03-20T06:21:57;7.13;;;4.80;;
19887;SDS011;10106;51.332;12.336;2023-03-20T06:24:23;4.90;;;3.50;;
19887;SDS011;10106;51.332;12.336;2023-03-20T06:26:49;5.37;;;4.37;;
19887;SDS011;10106;51.332;12.336;2023-03-20T06:29:15;7.30;;;5.07;;
19887;SDS011;10106;51.332;12.336;2023-03-20T06:31:40;5.90;;;4.57;;
19887;SDS011;10106;51.332;12.336;2023-03-20T06:34:06;6.50;;;4.40;;
19887;SDS011;10106;51.332;12.336;2023-03-20T06:36:32;4.80;;;3.33;;
19887;SDS011;10106;51.332;12.336;2023-03-20T06:38:57;7.53;;;4.17;;
19887;SDS011;10106;51.332;12.336;2023-03-20T06:41:24;5.33;;;3.60;;
19887;SDS011;10106;51.332;12.336;2023-03-20T06:43:50;6.93;;;3.77;;
19887;SDS011;10106;51.332;12.336;2023-03-20T06:46:15;4.83;;;3.77;;
19887;SDS011;10106;51.332;12.336;2023-03-20T06:48:41;6.70;;;4.43;;
19887;SDS011;10106;51.332;12.336;2023-03-20T06:51:07;4.20;;;3.73;;
19887;SDS011;10106;51.332;12.336;2023-03-20T06:53:33;4.70;;;4.13;;
19887;SDS011;10106;51.332;12.336;2023-03-20T06:55:58;9.60;;;4.63;;
19887;SDS011;10106;51.332;12.336;2023-03-20T06:58:24;5.93;;;4.20;;
19887;SDS011;10106;51.332;12.336;2023-03-20T07:00:51;5.70;;;4.13;;
19887;SDS011;10106;51.332;12.336;2023-03-20T07:03:18;8.63;;;4.63;;
19887;SDS011;10106;51.332;12.336;2023-03-20T07:05:47;6.50;;;4.23;;
19887;SDS011;10106;51.332;12.336;2023-03-20T07:08:14;10.37;;;5.97;;
19887;SDS011;10106;51.332;12.336;2023-03-20T07:10:40;10.30;;;5.40;;
19887;SDS011;10106;51.332;12.336;2023-03-20T07:13:05;8.90;;;5.70;;
19887;SDS011;10106;51.332;12.336;2023-03-20T07:15:31;9.27;;;5.50;;
19887;SDS011;10106;51.332;12.336;2023-03-20T07:17:57;10.60;;;5.67;;
19887;SDS011;10106;51.332;12.336;2023-03-20T07:20:23;10.87;;;6.00;;
19887;SDS011;10106;51.332;12.336;2023-03-20T07:22:48;18.73;;;7.17;;
19887;SDS011;10106;51.332;12.336;2023-03-20T07:25:14;16.53;;;8.60;;
19887;SDS011;10106;51.332;12.336;2023-03-20T07:27:40;14.50;;;7.67;;
19887;SDS011;10106;51.332;12.336;2023-03-20T07:30:07;20.87;;;9.70;;
19887;SDS011;10106;51.332;12.336;2023-03-20T07:32:33;20.23;;;9.63;;
19887;SDS011;10106;51.332;12.336;2023-03-20T07:34:59;25.53;;;9.97;;
19887;SDS011;10106;51.332;12.336;2023-03-20T07:37:25;20.40;;;9.77;;
19887;SDS011;10106;51.332;12.336;2023-03-20T07:39:51;21.10;;;9.63;;
19887;SDS011;10106;51.332;12.336;2023-03-20T07:42:17;18.80;;;10.80;;
19887;SDS011;10106;51.332;12.336;2023-03-20T07:44:42;20.17;;;10.10;;
19887;SDS011;10106;51.332;12.336;2023-03-20T07:47:08;19.40;;;9.10;;
19887;SDS011;10106;51.332;12.336;2023-03-20T07:49:34;27.47;;;10.90;;
19887;SDS011;10106;51.332;12.336;2023-03-20T07:51:59;22.17;;;10.27;;
19887;SDS011;10106;51.332;12.336;2023-03-20T07:54:25;28.40;;;11.20;;
19887;SDS011;10106;51.332;12.336;2023-03-20T07:56:51;27.73;;;12.60;;
19887;SDS011;10106;51.332;12.336;2023-03-20T07:59:17;32.87;;;12.67;;
19887;SDS011;10106;51.332;12.336;2023-03-20T08:01:43;23.20;;;11.37;;
19887;SDS011;10106;51.332;12.336;2023-03-20T08:04:09;27.60;;;12.37;;
19887;SDS011;10106;51.332;12.336;2023-03-20T08:06:35;33.47;;;13.37;;
19887;SDS011;10106;51.332;12.336;2023-03-20T08:09:03;29.17;;;12.57;;
19887;SDS011;10106;51.332;12.336;2023-03-20T08:11:29;26.10;;;12.53;;
19887;SDS011;10106;51.332;12.336;2023-03-20T08:13:55;29.10;;;11.70;;
19887;SDS011;10106;51.332;12.336;2023-03-20T08:16:21;28.27;;;12.43;;
19887;SDS011;10106;51.332;12.336;2023-03-20T08:18:46;31.07;;;13.57;;
19887;SDS011;10106;51.332;12.336;2023-03-20T08:21:12;35.80;;;11.97;;
19887;SDS011;10106;51.332;12.336;2023-03-20T08:23:38;26.33;;;12.07;;
19887;SDS011;10106;51.332;12.336;2023-03-20T08:26:03;32.80;;;12.90;;
19887;SDS011;10106;51.332;12.336;2023-03-20T08:28:29;30.20;;;13.57;;
19887;SDS011;10106;51.332;12.336;2023-03-20T08:30:55;33.70;;;13.50;;
19887;SDS011;10106;51.332;12.336;2023-03-20T08:33:21;36.33;;;11.70;;
19887;SDS011;10106;51.332;12.336;2023-03-20T08:35:56;30.00;;;13.70;;
19887;SDS011;10106;51.332;12.336;2023-03-20T08:38:22;26.53;;;12.70;;
19887;SDS011;10106;51.332;12.336;2023-03-20T08:40:48;33.83;;;14.47;;
19887;SDS011;10106;51.332;12.336;2023-03-20T08:43:14;31.00;;;12.53;;
19887;SDS011;10106;51.332;12.336;2023-03-20T08:45:40;37.97;;;12.17;;
19887;SDS011;10106;51.332;12.336;2023-03-20T08:48:09;35.90;;;14.73;;
19887;SDS011;10106;51.332;12.336;2023-03-20T08:50:35;30.10;;;12.40;;
19887;SDS011;10106;51.332;12.336;2023-03-20T08:53:01;30.10;;;13.70;;
19887;SDS011;10106;51.332;12.336;2023-03-20T08:55:27;37.10;;;15.00;;
19887;SDS011;10106;51.332;12.336;2023-03-20T08:57:53;36.47;;;15.80;;
19887;SDS011;10106;51.332;12.336;2023-03-20T09:00:21;28.20;;;13.30;;
19887;SDS011;10106;51.332;12.336;2023-03-20T09:02:48;34.10;;;14.00;;
19887;SDS011;10106;51.332;12.336;2023-03-20T09:05:14;34.40;;;15.23;;
19887;SDS011;10106;51.332;12.336;2023-03-20T09:07:41;36.20;;;14.40;;
19887;SDS011;10106;51.332;12.336;2023-03-20T09:10:07;37.60;;;15.07;;
19887;SDS011;10106;51.332;12.336;2023-03-20T09:12:34;38.60;;;14.17;;
19887;SDS011;10106;51.332;12.336;2023-03-20T09:15:00;31.73;;;15.40;;
19887;SDS011;10106;51.332;12.336;2023-03-20T09:17:26;38.47;;;14.17;;
19887;SDS011;10106;51.332;12.336;2023-03-20T09:19:52;36.20;;;14.83;;
19887;SDS011;10106;51.332;12.336;2023-03-20T09:22:18;34.63;;;14.67;;
19887;SDS011;10106;51.332;12.336;2023-03-20T09:24:44;39.83;;;14.80;;
19887;SDS011;10106;51.332;12.336;2023-03-20T09:27:10;37.30;;;14.67;;
19887;SDS011;10106;51.332;12.336;2023-03-20T09:29:40;40.10;;;14.60;;
19887;SDS011;10106;51.332;12.336;2023-03-20T09:32:07;32.33;;;14.53;;
19887;SDS011;10106;51.332;12.336;2023-03-20T09:34:36;31.17;;;13.23;;
19887;SDS011;10106;51.332;12.336;2023-03-20T09:37:02;28.87;;;12.77;;
19887;SDS011;10106;51.332;12.336;2023-03-20T09:39:28;35.67;;;14.70;;
19887;SDS011;10106;51.332;12.336;2023-03-20T09:41:54;36.77;;;13.63;;
19887;SDS011;10106;51.332;12.336;2023-03-20T09:52:34;36.83;;;14.13;;
19887;SDS011;10106;51.332;12.336;2023-03-20T09:55:13;38.47;;;14.03;;
19887;SDS011;10106;51.332;12.336;2023-03-20T09:57:42;37.13;;;14.20;;
19887;SDS011;10106;51.332;12.336;2023-03-20T10:00:19;47.13;;;14.73;;
19887;SDS011;10106;51.332;12.336;2023-03-20T10:05:47;36.87;;;14.20;;
19887;SDS011;10106;51.332;12.336;2023-03-20T10:08:27;35.50;;;14.37;;
19887;SDS011;10106;51.332;12.336;2023-03-20T10:21:37;37.47;;;14.70;;
19887;SDS011;10106;51.332;12.336;2023-03-20T10:24:11;35.43;;;14.27;;
19887;SDS011;10106;51.332;12.336;2023-03-20T10:26:54;38.73;;;14.10;;
19887;SDS011;10106;51.332;12.336;2023-03-20T10:29:36;43.03;;;16.80;;
19887;SDS011;10106;51.332;12.336;2023-03-20T10:32:18;38.63;;;15.53;;
19887;SDS011;10106;51.332;12.336;2023-03-20T10:42:51;35.37;;;14.60;;
19887;SDS011;10106;51.332;12.336;2023-03-20T10:47:54;38.57;;;16.50;;
19887;SDS011;10106;51.332;12.336;2023-03-20T10:50:24;37.97;;;15.50;;
19887;SDS011;10106;51.332;12.336;2023-03-20T10:56:34;40.63;;;15.17;;
19887;SDS011;10106;51.332;12.336;2023-03-20T10:59:08;30.80;;;13.90;;
19887;SDS011;10106;51.332;12.336;2023-03-20T11:01:48;44.30;;;15.13;;
19887;SDS011;10106;51.332;12.336;2023-03-20T11:04:14;42.23;;;14.93;;
19887;SDS011;10106;51.332;12.336;2023-03-20T11:06:45;33.27;;;14.43;;
19887;SDS011;10106;51.332;12.336;2023-03-20T11:09:24;41.73;;;15.37;;
19887;SDS011;10106;51.332;12.336;2023-03-20T11:11:57;43.00;;;15.43;;
19887;SDS011;10106;51.332;12.336;2023-03-20T11:14:26;45.90;;;15.90;;
19887;SDS011;10106;51.332;12.336;2023-03-20T11:17:02;38.30;;;14.93;;
19887;SDS011;10106;51.332;12.336;2023-03-20T11:19:31;33.67;;;16.13;;
19887;SDS011;10106;51.332;12.336;2023-03-20T11:21:59;46.93;;;17.70;;
19887;SDS011;10106;51.332;12.336;2023-03-20T11:27:15;41.20;;;15.20;;
19887;SDS011;10106;51.332;12.336;2023-03-20T11:29:45;43.00;;;16.27;;
19887;SDS011;10106;51.332;12.336;2023-03-20T11:35:10;44.50;;;15.30;;
19887;SDS011;10106;51.332;12.336;2023-03-20T11:37:54;50.73;;;15.60;;
19887;SDS011;10106;51.332;12.336;2023-03-20T11:40:31;40.90;;;15.40;;
19887;SDS011;10106;51.332;12.336;2023-03-20T11:45:49;37.60;;;16.53;;
19887;SDS011;10106;51.332;12.336;2023-03-20T11:48:20;41.00;;;17.30;;
19887;SDS011;10106;51.332;12.336;2023-03-20T11:50:48;36.63;;;15.33;;
19887;SDS011;10106;51.332;12.336;2023-03-20T11:56:14;45.70;;;16.77;;
19887;SDS011;10106;51.332;12.336;2023-03-20T12:01:40;38.17;;;14.90;;
19887;SDS011;10106;51.332;12.336;2023-03-20T12:04:16;41.10;;;15.20;;
19887;SDS011;10106;51.332;12.336;2023-03-20T12:20:01;24.07;;;11.90;;
19887;SDS011;10106;51.332;12.336;2023-03-20T12:22:39;31.30;;;13.60;;
19887;SDS011;10106;51.332;12.336;2023-03-20T12:30:47;36.50;;;12.10;;
19887;SDS011;10106;51.332;12.336;2023-03-20T12:33:35;27.77;;;12.70;;
19887;SDS011;10106;51.332;12.336;2023-03-20T12:36:11;24.87;;;11.30;;
19887;SDS011;10106;51.332;12.336;2023-03-20T12:38:40;33.53;;;12.20;;
19887;SDS011;10106;51.332;12.336;2023-03-20T12:43:43;27.53;;;12.53;;
19887;SDS011;10106;51.332;12.336;2023-03-20T12:46:35;24.27;;;12.13;;
19887;SDS011;10106;51.332;12.336;2023-03-20T12:49:28;28.20;;;11.37;;
19887;SDS011;10106;51.332;12.336;2023-03-20T12:58:02;22.77;;;10.93;;
19887;SDS011;10106;51.332;12.336;2023-03-20T13:03:34;28.90;;;12.63;;
19887;SDS011;10106;51.332;12.336;2023-03-20T13:17:18;21.37;;;10.50;;
19887;SDS011;10106;51.332;12.336;2023-03-20T13:22:58;23.97;;;9.40;;
19887;SDS011;10106;51.332;12.336;2023-03-20T13:26:07;21.27;;;8.67;;
19887;SDS011;10106;51.332;12.336;2023-03-20T13:28:56;32.20;;;9.83;;
19887;SDS011;10106;51.332;12.336;2023-03-20T13:40:11;20.80;;;8.77;;
19887;SDS011;10106;51.332;12.336;2023-03-20T13:42:46;18.87;;;8.50;;
19887;SDS011;10106;51.332;12.336;2023-03-20T13:45:50;19.17;;;9.00;;
19887;SDS011;10106;51.332;12.336;2023-03-20T13:48:35;18.20;;;9.87;;
19887;SDS011;10106;51.332;12.336;2023-03-20T14:03:46;18.20;;;8.90;;
19887;SDS011;10106;51.332;12.336;2023-03-20T14:08:53;19.00;;;9.70;;
19887;SDS011;10106;51.332;12.336;2023-03-20T14:13:48;25.77;;;10.20;;
19887;SDS011;10106;51.332;12.336;2023-03-20T14:16:18;20.93;;;8.90;;
19887;SDS011;10106;51.332;12.336;2023-03-20T14:18:46;20.30;;;9.33;;
19887;SDS011;10106;51.332;12.336;2023-03-20T14:21:19;21.57;;;9.93;;
19887;SDS011;10106;51.332;12.336;2023-03-20T14:23:51;20.20;;;10.03;;
19887;SDS011;10106;51.332;12.336;2023-03-20T14:26:28;19.33;;;8.60;;
19887;SDS011;10106;51.332;12.336;2023-03-20T14:31:36;20.00;;;8.90;;
19887;SDS011;10106;51.332;12.336;2023-03-20T14:52:47;25.80;;;8.83;;
19887;SDS011;10106;51.332;12.336;2023-03-20T14:57:48;16.40;;;7.83;;
19887;SDS011;10106;51.332;12.336;2023-03-20T15:02:47;20.10;;;9.60;;
19887;SDS011;10106;51.332;12.336;2023-03-20T15:05:26;18.27;;;8.17;;
19887;SDS011;10106;51.332;12.336;2023-03-20T15:07:57;23.80;;;9.53;;
19887;SDS011;10106;51.332;12.336;2023-03-20T15:10:29;18.63;;;8.97;;
19887;SDS011;10106;51.332;12.336;2023-03-20T15:12:58;19.17;;;7.90;;
19887;SDS011;10106;51.332;12.336;2023-03-20T15:17:55;14.30;;;8.00;;
19887;SDS011;10106;51.332;12.336;2023-03-20T15:20:27;17.90;;;7.83;;
19887;SDS011;10106;51.332;12.336;2023-03-20T15:22:57;20.33;;;8.27;;
19887;SDS011;10106;51.332;12.336;2023-03-20T15:25:30;20.23;;;8.60;;
19887;SDS011;10106;51.332;12.336;2023-03-20T15:27:57;15.97;;;8.00;;
19887;SDS011;10106;51.332;12.336;2023-03-20T15:30:23;16.70;;;8.43;;
19887;SDS011;10106;51.332;12.336;2023-03-20T15:32:54;17.47;;;9.17;;
19887;SDS011;10106;51.332;12.336;2023-03-20T15:35:20;16.63;;;8.73;;
19887;SDS011;10106;51.332;12.336;2023-03-20T15:37:48;17.07;;;8.07;;
19887;SDS011;10106;51.332;12.336;2023-03-20T15:40:22;19.60;;;8.80;;
19887;SDS011;10106;51.332;12.336;2023-03-20T15:42:59;18.00;;;9.10;;
19887;SDS011;10106;51.332;12.336;2023-03-20T15:45:31;28.33;;;9.20;;
19887;SDS011;10106;51.332;12.336;2023-03-20T15:48:04;17.57;;;8.53;;
19887;SDS011;10106;51.332;12.336;2023-03-20T15:50:41;16.33;;;7.80;;
19887;SDS011;10106;51.332;12.336;2023-03-20T15:53:13;14.00;;;6.17;;
19887;SDS011;10106;51.332;12.336;2023-03-20T15:55:46;11.77;;;5.20;;
19887;SDS011;10106;51.332;12.336;2023-03-20T15:58:14;8.10;;;4.80;;
19887;SDS011;10106;51.332;12.336;2023-03-20T16:00:41;8.50;;;5.00;;
19887;SDS011;10106;51.332;12.336;2023-03-20T16:03:10;8.23;;;5.00;;
19887;SDS011;10106;51.332;12.336;2023-03-20T16:05:42;7.13;;;4.70;;
19887;SDS011;10106;51.332;12.336;2023-03-20T16:08:14;12.30;;;4.80;;
19887;SDS011;10106;51.332;12.336;2023-03-20T16:10:54;13.47;;;4.90;;
19887;SDS011;10106;51.332;12.336;2023-03-20T16:13:25;14.70;;;5.77;;
19887;SDS011;10106;51.332;12.336;2023-03-20T16:15:52;9.07;;;5.00;;
19887;SDS011;10106;51.332;12.336;2023-03-20T16:18:18;10.10;;;4.90;;
19887;SDS011;10106;51.332;12.336;2023-03-20T16:20:49;9.53;;;5.83;;
19887;SDS011;10106;51.332;12.336;2023-03-20T16:23:40;8.77;;;5.33;;
19887;SDS011;10106;51.332;12.336;2023-03-20T16:26:17;10.97;;;6.07;;
19887;SDS011;10106;51.332;12.336;2023-03-20T16:28:45;12.23;;;5.70;;
19887;SDS011;10106;51.332;12.336;2023-03-20T16:31:21;9.53;;;5.73;;
19887;SDS011;10106;51.332;12.336;2023-03-20T16:33:52;7.67;;;4.37;;
19887;SDS011;10106;51.332;12.336;2023-03-20T16:36:27;15.37;;;6.73;;
19887;SDS011;10106;51.332;12.336;2023-03-20T16:38:56;7.50;;;4.73;;
19887;SDS011;10106;51.332;12.336;2023-03-20T16:41:32;9.50;;;5.47;;
19887;SDS011;10106;51.332;12.336;2023-03-20T16:44:06;8.80;;;5.43;;
19887;SDS011;10106;51.332;12.336;2023-03-20T16:47:13;11.67;;;5.10;;
19887;SDS011;10106;51.332;12.336;2023-03-20T16:52:13;12.00;;;6.57;;
19887;SDS011;10106;51.332;12.336;2023-03-20T16:54:40;12.73;;;5.63;;
19887;SDS011;10106;51.332;12.336;2023-03-20T16:57:08;11.97;;;5.50;;
19887;SDS011;10106;51.332;12.336;2023-03-20T16:59:39;13.57;;;6.83;;
19887;SDS011;10106;51.332;12.336;2023-03-20T17:02:20;12.07;;;5.80;;
19887;SDS011;10106;51.332;12.336;2023-03-20T17:04:54;13.03;;;6.00;;
19887;SDS011;10106;51.332;12.336;2023-03-20T17:07:21;9.13;;;5.87;;
19887;SDS011;10106;51.332;12.336;2023-03-20T17:10:37;11.57;;;6.87;;
19887;SDS011;10106;51.332;12.336;2023-03-20T17:12:41;11.30;;;6.70;;
19887;SDS011;10106;51.332;12.336;2023-03-20T17:15:12;13.87;;;7.33;;
19887;SDS011;10106;51.332;12.336;2023-03-20T17:17:39;18.47;;;7.87;;
19887;SDS011;10106;51.332;12.336;2023-03-20T17:20:05;13.40;;;6.47;;
19887;SDS011;10106;51.332;12.336;2023-03-20T17:22:32;14.97;;;7.87;;
19887;SDS011;10106;51.332;12.336;2023-03-20T17:24:58;16.27;;;8.03;;
19887;SDS011;10106;51.332;12.336;2023-03-20T17:27:24;14.60;;;7.87;;
19887;SDS011;10106;51.332;12.336;2023-03-20T17:29:52;14.77;;;7.07;;
19887;SDS011;10106;51.332;12.336;2023-03-20T17:32:20;15.47;;;8.17;;
19887;SDS011;10106;51.332;12.336;2023-03-20T17:34:49;17.10;;;7.70;;
19887;SDS011;10106;51.332;12.336;2023-03-20T17:37:23;17.00;;;8.50;;
19887;SDS011;10106;51.332;12.336;2023-03-20T17:39:50;14.20;;;6.27;;
19887;SDS011;10106;51.332;12.336;2023-03-20T17:42:19;16.73;;;8.70;;
19887;SDS011;10106;51.332;12.336;2023-03-20T17:44:48;16.50;;;7.97;;
19887;SDS011;10106;51.332;12.336;2023-03-20T17:47:15;15.67;;;7.90;;
19887;SDS011;10106;51.332;12.336;2023-03-20T17:49:46;17.10;;;8.57;;
19887;SDS011;10106;51.332;12.336;2023-03-20T17:52:13;21.27;;;9.80;;
19887;SDS011;10106;51.332;12.336;2023-03-20T17:54:40;17.97;;;9.80;;
19887;SDS011;10106;51.332;12.336;2023-03-20T17:57:27;19.00;;;9.87;;
19887;SDS011;10106;51.332;12.336;2023-03-20T17:59:56;15.20;;;8.77;;
19887;SDS011;10106;51.332;12.336;2023-03-20T18:02:22;19.33;;;8.40;;
19887;SDS011;10106;51.332;12.336;2023-03-20T18:04:49;16.67;;;10.00;;
19887;SDS011;10106;51.332;12.336;2023-03-20T18:07:15;20.90;;;9.00;;
19887;SDS011;10106;51.332;12.336;2023-03-20T18:09:42;18.63;;;9.57;;